createdAt,value
2018-12-15T00:01:24.959Z,12.43
2018-12-15T00:03:52.521Z,13.83
2018-12-15T00:06:20.063Z,13.23
2018-12-15T00:08:47.917Z,14.93
2018-12-15T00:11:15.477Z,15.13
2018-12-15T00:13:43.093Z,13.13
2018-12-15T00:16:10.652Z,15.33
2018-12-15T00:18:38.194Z,16.03
2018-12-15T00:21:05.752Z,14.73
2018-12-15T00:23:33.285Z,13.73
2018-12-15T00:26:00.845Z,16.13
2018-12-15T00:28:28.441Z,15.40
2018-12-15T00:30:55.989Z,12.20
2018-12-15T00:33:23.573Z,12.53
2018-12-15T00:35:51.131Z,14.53
2018-12-15T00:38:18.773Z,13.80
2018-12-15T00:40:46.300Z,14.37
2018-12-15T00:43:13.864Z,12.27
2018-12-15T00:45:41.390Z,14.70
2018-12-15T00:48:08.933Z,13.40
2018-12-15T00:50:36.494Z,15.53
2018-12-15T00:53:04.159Z,16.43
2018-12-15T00:55:31.899Z,14.93
2018-12-15T00:57:59.408Z,16.23
2018-12-15T01:00:26.993Z,15.27
2018-12-15T01:02:54.541Z,14.80
2018-12-15T01:05:22.160Z,15.63
2018-12-15T01:07:49.672Z,16.93
2018-12-15T01:10:17.307Z,16.17
2018-12-15T01:12:44.844Z,14.50
2018-12-15T01:15:12.561Z,17.90
2018-12-15T01:17:40.080Z,14.67
2018-12-15T01:20:08.634Z,15.00
2018-12-15T01:22:36.387Z,16.77
2018-12-15T01:25:04.062Z,20.83
2018-12-15T01:27:31.596Z,19.73
2018-12-15T01:29:59.136Z,15.17
2018-12-15T01:32:26.705Z,17.47
2018-12-15T01:34:54.219Z,16.87
2018-12-15T01:37:22.031Z,14.23
2018-12-15T01:39:49.580Z,16.40
2018-12-15T01:42:17.139Z,14.57
2018-12-15T01:44:44.664Z,17.30
2018-12-15T01:47:12.220Z,15.63
2018-12-15T01:49:39.749Z,19.67
2018-12-15T01:52:07.306Z,15.87
2018-12-15T01:54:34.904Z,17.63
2018-12-15T01:57:02.453Z,17.93
2018-12-15T01:59:30.022Z,18.17
2018-12-15T02:01:57.555Z,19.37
2018-12-15T02:04:25.071Z,17.20
2018-12-15T02:06:52.743Z,14.13
2018-12-15T02:09:20.295Z,22.13
2018-12-15T02:11:47.851Z,14.53
2018-12-15T02:14:15.366Z,14.07
2018-12-15T02:16:42.913Z,16.17
2018-12-15T02:19:10.481Z,17.70
2018-12-15T02:21:38.022Z,18.03
2018-12-15T02:24:05.578Z,17.80
2018-12-15T02:26:33.448Z,19.90
2018-12-15T02:29:00.971Z,15.57
2018-12-15T02:31:28.508Z,18.10
2018-12-15T02:33:56.094Z,15.00
2018-12-15T02:36:23.853Z,16.10
2018-12-15T02:38:51.421Z,15.43
2018-12-15T02:41:19.111Z,15.67
2018-12-15T02:43:46.694Z,15.57
2018-12-15T02:46:14.233Z,16.43
2018-12-15T02:48:41.796Z,17.03
2018-12-15T02:51:09.356Z,17.50
2018-12-15T02:53:36.893Z,16.43
2018-12-15T02:56:04.483Z,17.40
2018-12-15T02:58:32.038Z,17.30
2018-12-15T03:00:59.613Z,15.70
2018-12-15T03:03:27.190Z,17.50
2018-12-15T03:05:54.741Z,16.43
2018-12-15T03:08:22.371Z,15.20
2018-12-15T03:10:49.901Z,17.47
2018-12-15T03:13:17.513Z,16.93
2018-12-15T03:15:45.019Z,17.17
2018-12-15T03:18:12.690Z,17.37
2018-12-15T03:20:44.273Z,20.50
2018-12-15T03:23:11.841Z,17.40
2018-12-15T03:25:39.573Z,15.50
2018-12-15T03:28:07.087Z,17.57
2018-12-15T03:30:34.671Z,14.60
2018-12-15T03:33:02.256Z,16.87
2018-12-15T03:35:29.768Z,17.70
2018-12-15T03:37:57.395Z,16.87
2018-12-15T03:40:25.087Z,18.33
2018-12-15T03:42:52.624Z,18.27
2018-12-15T03:45:20.199Z,17.80
2018-12-15T03:47:47.715Z,17.83
2018-12-15T03:50:15.265Z,16.03
2018-12-15T03:52:42.931Z,17.00
2018-12-15T03:55:10.449Z,17.57
2018-12-15T03:57:37.977Z,19.37
2018-12-15T04:00:05.813Z,18.13
2018-12-15T04:02:33.347Z,15.53
2018-12-15T04:05:00.871Z,18.30
2018-12-15T04:07:28.436Z,15.87
2018-12-15T04:09:55.963Z,17.00
2018-12-15T04:12:23.546Z,17.67
2018-12-15T04:14:51.120Z,18.20
2018-12-15T04:17:18.641Z,17.93
2018-12-15T04:19:46.478Z,16.83
2018-12-15T04:22:19.314Z,17.83
2018-12-15T04:24:46.909Z,17.80
2018-12-15T04:27:14.473Z,17.63
2018-12-15T04:29:42.013Z,18.17
2018-12-15T04:32:09.525Z,16.20
2018-12-15T04:34:37.069Z,17.83
2018-12-15T04:37:04.627Z,17.17
2018-12-15T04:39:32.154Z,15.70
2018-12-15T04:41:59.706Z,18.13
2018-12-15T04:44:27.308Z,16.57
2018-12-15T04:46:55.142Z,17.20
2018-12-15T04:49:22.725Z,18.40
2018-12-15T04:51:50.245Z,19.17
2018-12-15T04:54:17.840Z,17.37
2018-12-15T04:56:45.452Z,18.97
2018-12-15T04:59:13.019Z,17.90
2018-12-15T05:01:40.609Z,18.73
2018-12-15T05:04:08.185Z,23.40
2018-12-15T05:06:35.677Z,19.90
2018-12-15T05:09:04.078Z,17.33
2018-12-15T05:11:31.666Z,19.20
2018-12-15T05:13:59.187Z,19.00
2018-12-15T05:16:26.771Z,20.80
2018-12-15T05:18:54.310Z,17.50
2018-12-15T05:21:21.910Z,20.03
2018-12-15T05:23:49.453Z,22.17
2018-12-15T05:26:17.058Z,20.03
2018-12-15T05:28:44.844Z,22.10
2018-12-15T05:31:12.409Z,19.20
2018-12-15T05:33:39.974Z,20.17
2018-12-15T05:36:07.538Z,19.73
2018-12-15T05:38:35.123Z,20.63
2018-12-15T05:41:02.809Z,21.00
2018-12-15T05:43:30.320Z,21.57
2018-12-15T05:45:57.979Z,19.20
2018-12-15T05:48:25.616Z,21.57
2018-12-15T05:50:53.377Z,20.87
2018-12-15T05:53:20.889Z,22.90
2018-12-15T05:55:48.531Z,22.47
2018-12-15T05:58:16.042Z,22.63
2018-12-15T06:00:43.572Z,21.47
2018-12-15T06:03:11.122Z,24.53
2018-12-15T06:05:38.720Z,19.20
2018-12-15T06:08:06.261Z,18.80
2018-12-15T06:10:33.995Z,20.30
2018-12-15T06:13:01.536Z,23.40
2018-12-15T06:15:29.081Z,21.93
2018-12-15T06:17:56.602Z,20.40
2018-12-15T06:20:24.163Z,20.23
2018-12-15T06:22:51.687Z,21.47
2018-12-15T06:25:19.234Z,24.07
2018-12-15T06:27:47.012Z,20.63
2018-12-15T06:30:14.548Z,20.13
2018-12-15T06:32:42.069Z,17.37
2018-12-15T06:35:09.610Z,23.20
2018-12-15T06:37:37.150Z,21.73
2018-12-15T06:40:06.114Z,19.13
2018-12-15T06:42:33.698Z,21.67
2018-12-15T06:45:01.241Z,19.30
2018-12-15T06:47:28.851Z,21.27
2018-12-15T06:49:56.425Z,19.87
2018-12-15T06:52:24.021Z,21.63
2018-12-15T06:54:51.576Z,24.03
2018-12-15T06:57:19.264Z,24.50
2018-12-15T06:59:46.804Z,20.33
2018-12-15T07:02:14.369Z,24.03
2018-12-15T07:04:42.430Z,20.93
2018-12-15T07:07:09.997Z,23.20
2018-12-15T07:09:37.781Z,22.43
2018-12-15T07:12:05.324Z,21.10
2018-12-15T07:14:32.846Z,21.30
2018-12-15T07:17:00.441Z,20.67
2018-12-15T07:19:27.964Z,22.73
2018-12-15T07:21:55.532Z,19.30
2018-12-15T07:24:23.093Z,21.80
2018-12-15T07:26:50.801Z,23.27
2018-12-15T07:29:18.327Z,21.60
2018-12-15T07:31:46.125Z,21.50
2018-12-15T07:34:13.700Z,20.60
2018-12-15T07:36:41.328Z,22.83
2018-12-15T07:39:08.887Z,25.30
2018-12-15T07:41:36.436Z,22.43
2018-12-15T07:44:04.351Z,27.10
2018-12-15T07:46:32.104Z,22.53
2018-12-15T07:49:00.695Z,23.13
2018-12-15T07:51:28.249Z,24.53
2018-12-15T07:53:56.782Z,25.67
2018-12-15T07:56:26.234Z,23.00
2018-12-15T07:58:53.909Z,24.90
2018-12-15T08:01:22.171Z,23.50
2018-12-15T08:03:49.700Z,26.07
2018-12-15T08:06:17.312Z,23.00
2018-12-15T08:08:44.883Z,23.70
2018-12-15T08:11:18.342Z,21.50
2018-12-15T08:13:48.050Z,24.60
2018-12-15T08:16:16.689Z,25.43
2018-12-15T08:18:45.015Z,22.73
2018-12-15T08:21:12.838Z,21.57
2018-12-15T08:23:41.194Z,26.17
2018-12-15T08:26:08.809Z,28.03
2018-12-15T08:28:36.313Z,24.13
2018-12-15T08:31:04.627Z,23.03
2018-12-15T08:33:32.183Z,21.90
2018-12-15T08:36:00.932Z,22.63
2018-12-15T08:38:28.494Z,23.93
2018-12-15T08:40:56.157Z,28.00
2018-12-15T08:43:23.692Z,22.77
2018-12-15T08:45:56.809Z,23.20
2018-12-15T08:48:24.412Z,23.20
2018-12-15T08:50:52.490Z,24.47
2018-12-15T08:53:20.001Z,26.73
2018-12-15T08:55:48.685Z,21.40
2018-12-15T08:58:16.584Z,25.20
2018-12-15T09:00:44.397Z,22.43
2018-12-15T09:03:12.236Z,23.10
2018-12-15T09:05:40.558Z,26.30
2018-12-15T09:08:08.529Z,25.20
2018-12-15T09:10:36.087Z,21.80
2018-12-15T09:13:03.854Z,32.63
2018-12-15T09:15:31.702Z,29.80
2018-12-15T09:17:59.376Z,26.93
2018-12-15T09:20:27.100Z,21.17
2018-12-15T09:22:54.659Z,24.03
2018-12-15T09:25:22.560Z,25.53
2018-12-15T09:27:50.706Z,23.40
2018-12-15T09:30:18.263Z,24.60
2018-12-15T09:32:46.062Z,23.83
2018-12-15T09:35:15.162Z,22.17
2018-12-15T09:37:43.353Z,23.63
2018-12-15T09:40:10.955Z,22.73
2018-12-15T09:42:38.518Z,21.47
2018-12-15T09:45:06.721Z,26.73
2018-12-15T09:47:34.324Z,24.33
2018-12-15T09:50:02.520Z,26.00
2018-12-15T09:52:30.350Z,25.57
2018-12-15T09:54:57.887Z,22.83
2018-12-15T09:57:25.420Z,23.27
2018-12-15T09:59:53.076Z,24.40
2018-12-15T10:02:21.011Z,25.53
2018-12-15T10:04:48.592Z,26.13
2018-12-15T10:07:16.455Z,24.67
2018-12-15T10:09:44.706Z,25.90
2018-12-15T10:12:12.494Z,29.77
2018-12-15T10:14:40.322Z,26.47
2018-12-15T10:17:08.959Z,26.50
2018-12-15T10:19:37.038Z,23.80
2018-12-15T10:22:04.561Z,21.93
2018-12-15T10:24:32.115Z,24.10
2018-12-15T10:26:59.673Z,23.83
2018-12-15T10:29:32.867Z,25.67
2018-12-15T10:32:06.267Z,28.33
2018-12-15T10:34:34.089Z,26.63
2018-12-15T10:37:01.976Z,24.03
2018-12-15T10:39:29.547Z,26.00
2018-12-15T10:41:57.241Z,23.47
2018-12-15T10:44:24.876Z,21.53
2018-12-15T10:46:52.488Z,24.67
2018-12-15T10:49:21.638Z,26.93
2018-12-15T10:51:49.214Z,25.57
2018-12-15T10:54:16.776Z,24.37
2018-12-15T10:56:44.412Z,24.77
2018-12-15T10:59:12.360Z,26.90
2018-12-15T11:01:39.926Z,25.77
2018-12-15T11:04:07.498Z,22.97
2018-12-15T11:06:35.296Z,22.73
2018-12-15T11:09:03.527Z,21.77
2018-12-15T11:11:31.119Z,25.43
2018-12-15T11:13:59.164Z,26.83
2018-12-15T11:16:26.792Z,23.23
2018-12-15T11:18:54.883Z,23.63
2018-12-15T11:21:22.435Z,24.20
2018-12-15T11:23:49.999Z,23.43
2018-12-15T11:26:17.560Z,26.87
2018-12-15T11:28:45.319Z,23.93
2018-12-15T11:31:13.311Z,29.73
2018-12-15T11:33:41.156Z,26.90
2018-12-15T11:36:08.840Z,26.77
2018-12-15T11:38:36.426Z,26.83
2018-12-15T11:41:03.960Z,24.83
2018-12-15T11:43:31.539Z,25.03
2018-12-15T11:45:59.162Z,24.47
2018-12-15T11:48:27.136Z,25.47
2018-12-15T11:50:54.716Z,22.03
2018-12-15T11:53:22.268Z,24.80
2018-12-15T11:55:49.854Z,25.40
2018-12-15T11:58:17.408Z,22.67
2018-12-15T12:00:44.954Z,26.23
2018-12-15T12:03:12.766Z,24.73
2018-12-15T12:05:40.329Z,24.60
2018-12-15T12:08:07.910Z,23.50
2018-12-15T12:10:35.450Z,24.87
2018-12-15T12:13:03.514Z,24.33
2018-12-15T12:15:31.082Z,23.93
2018-12-15T12:17:58.717Z,22.27
2018-12-15T12:20:26.271Z,21.70
2018-12-15T12:22:53.895Z,24.97
2018-12-15T12:25:21.572Z,23.20
2018-12-15T12:27:49.139Z,26.90
2018-12-15T12:30:16.932Z,23.23
2018-12-15T12:32:44.486Z,25.20
2018-12-15T12:35:12.021Z,24.63
2018-12-15T12:37:39.584Z,28.80
2018-12-15T12:40:07.422Z,23.93
2018-12-15T12:42:34.982Z,25.37
2018-12-15T12:45:02.627Z,24.77
2018-12-15T12:47:30.333Z,26.43
2018-12-15T12:49:57.897Z,21.93
2018-12-15T12:52:25.733Z,21.90
2018-12-15T12:54:53.540Z,21.80
2018-12-15T12:57:21.160Z,25.60
2018-12-15T12:59:48.755Z,23.27
2018-12-15T13:02:16.690Z,23.23
2018-12-15T13:04:44.248Z,26.07
2018-12-15T13:07:11.767Z,23.10
2018-12-15T13:09:39.397Z,23.77
2018-12-15T13:12:06.959Z,25.97
2018-12-15T13:14:34.498Z,23.30
2018-12-15T13:17:02.201Z,25.53
2018-12-15T13:19:30.983Z,29.33
2018-12-15T13:21:58.546Z,25.90
2018-12-15T13:24:26.214Z,30.57
2018-12-15T13:26:59.113Z,27.07
2018-12-15T13:29:23.406Z,24.40
2018-12-15T13:31:51.032Z,24.80
2018-12-15T13:34:18.589Z,26.23
2018-12-15T13:36:46.113Z,25.90
2018-12-15T13:39:13.880Z,23.67
2018-12-15T13:41:42.297Z,25.20
2018-12-15T13:44:11.425Z,23.23
2018-12-15T13:46:38.969Z,24.03
2018-12-15T13:49:06.509Z,25.70
2018-12-15T13:51:34.080Z,25.00
2018-12-15T13:54:01.766Z,23.00
2018-12-15T13:56:29.785Z,22.50
2018-12-15T13:58:57.366Z,21.83
2018-12-15T14:01:24.940Z,26.50
2018-12-15T14:03:52.476Z,22.07
2018-12-15T14:06:20.044Z,25.87
2018-12-15T14:08:47.751Z,23.63
2018-12-15T14:11:15.347Z,26.67
2018-12-15T14:13:43.066Z,21.57
2018-12-15T14:16:11.070Z,23.13
2018-12-15T14:18:38.629Z,22.73
2018-12-15T14:21:07.111Z,23.23
2018-12-15T14:23:34.669Z,23.40
2018-12-15T14:26:04.225Z,21.80
2018-12-15T14:28:31.799Z,23.93
2018-12-15T14:31:00.637Z,21.47
2018-12-15T14:33:28.194Z,23.60
2018-12-15T14:35:55.704Z,20.47
2018-12-15T14:38:23.317Z,21.30
2018-12-15T14:40:50.970Z,24.30
2018-12-15T14:43:18.531Z,24.40
2018-12-15T14:45:46.398Z,25.57
2018-12-15T14:48:14.291Z,24.60
2018-12-15T14:50:41.822Z,23.33
2018-12-15T14:53:09.392Z,23.77
2018-12-15T14:55:36.944Z,22.10
2018-12-15T14:58:04.504Z,24.90
2018-12-15T15:00:32.117Z,22.00
2018-12-15T15:02:59.652Z,22.50
2018-12-15T15:05:27.191Z,22.83
2018-12-15T15:07:54.742Z,24.17
2018-12-15T15:10:22.317Z,23.00
2018-12-15T15:12:50.058Z,23.87
2018-12-15T15:15:17.663Z,23.37
2018-12-15T15:17:45.197Z,22.37
2018-12-15T15:20:12.743Z,24.03
2018-12-15T15:22:40.263Z,23.73
2018-12-15T15:25:07.981Z,23.53
2018-12-15T15:27:35.542Z,21.70
2018-12-15T15:30:05.029Z,20.80
2018-12-15T15:32:32.673Z,22.03
2018-12-15T15:35:00.289Z,20.70
2018-12-15T15:37:28.020Z,23.63
2018-12-15T15:39:55.620Z,23.27
2018-12-15T15:42:23.158Z,27.50
2018-12-15T15:44:51.605Z,22.33
2018-12-15T15:47:19.121Z,24.60
2018-12-15T15:49:46.956Z,23.37
2018-12-15T15:52:14.481Z,23.60
2018-12-15T15:54:42.103Z,20.87
2018-12-15T15:57:09.664Z,21.53
2018-12-15T15:59:37.590Z,21.10
2018-12-15T16:02:05.247Z,20.83
2018-12-15T16:04:32.818Z,22.60
2018-12-15T16:07:00.479Z,23.00
2018-12-15T16:09:28.059Z,23.80
2018-12-15T16:11:55.818Z,20.37
2018-12-15T16:14:23.394Z,19.93
2018-12-15T16:16:51.340Z,21.93
2018-12-15T16:19:18.907Z,20.60
2018-12-15T16:21:46.721Z,21.40
2018-12-15T16:24:14.509Z,19.93
2018-12-15T16:26:42.274Z,23.13
2018-12-15T16:29:18.453Z,18.83
2018-12-15T16:31:50.287Z,23.17
2018-12-15T16:34:17.818Z,21.87
2018-12-15T16:36:45.606Z,22.17
2018-12-15T16:39:13.197Z,23.67
2018-12-15T16:41:42.397Z,23.40
2018-12-15T16:44:10.307Z,27.20
2018-12-15T16:46:37.865Z,23.23
2018-12-15T16:49:06.156Z,19.10
2018-12-15T16:51:33.984Z,20.27
2018-12-15T16:54:01.554Z,20.63
2018-12-15T16:56:30.467Z,20.27
2018-12-15T16:58:58.032Z,21.27
2018-12-15T17:01:25.584Z,20.73
2018-12-15T17:03:53.189Z,20.47
2018-12-15T17:06:20.829Z,21.60
2018-12-15T17:08:48.415Z,20.73
2018-12-15T17:11:16.583Z,19.20
2018-12-15T17:13:44.127Z,18.93
2018-12-15T17:16:11.728Z,20.00
2018-12-15T17:18:39.357Z,17.77
2018-12-15T17:21:06.950Z,20.17
2018-12-15T17:23:34.518Z,20.73
2018-12-15T17:26:02.053Z,20.43
2018-12-15T17:28:29.911Z,24.27
2018-12-15T17:30:57.536Z,19.20
2018-12-15T17:33:25.267Z,17.23
2018-12-15T17:35:52.798Z,16.23
2018-12-15T17:38:20.391Z,16.50
2018-12-15T17:40:47.905Z,17.97
2018-12-15T17:43:15.466Z,13.47
2018-12-15T17:45:43.127Z,16.70
2018-12-15T17:48:10.912Z,13.20
2018-12-15T17:50:41.289Z,13.40
2018-12-15T17:53:08.822Z,15.97
2018-12-15T17:55:36.386Z,13.97
2018-12-15T17:58:05.035Z,14.57
2018-12-15T18:00:32.762Z,15.77
2018-12-15T18:03:00.318Z,16.77
2018-12-15T18:05:27.832Z,12.03
2018-12-15T18:07:55.376Z,15.03
2018-12-15T18:10:23.036Z,15.77
2018-12-15T18:12:50.883Z,14.60
2018-12-15T18:15:18.434Z,13.83
2018-12-15T18:17:46.120Z,19.07
2018-12-15T18:20:13.688Z,14.47
2018-12-15T18:22:41.216Z,16.20
2018-12-15T18:25:08.773Z,16.47
2018-12-15T18:27:36.335Z,14.90
2018-12-15T18:30:06.248Z,15.83
2018-12-15T18:32:33.772Z,17.17
2018-12-15T18:35:01.502Z,15.97
2018-12-15T18:37:29.236Z,13.47
2018-12-15T18:39:56.796Z,13.20
2018-12-15T18:42:24.309Z,18.93
2018-12-15T18:44:51.870Z,17.43
2018-12-15T18:47:20.244Z,12.93
2018-12-15T18:49:47.858Z,16.00
2018-12-15T18:52:16.034Z,14.80
2018-12-15T18:54:43.544Z,17.70
2018-12-15T18:57:11.377Z,16.17
2018-12-15T18:59:39.168Z,13.10
2018-12-15T19:02:06.761Z,14.57
2018-12-15T19:04:34.369Z,14.47
2018-12-15T19:07:02.501Z,15.77
2018-12-15T19:09:30.113Z,16.33
2018-12-15T19:11:57.743Z,16.57
2018-12-15T19:14:25.299Z,15.53
2018-12-15T19:16:52.870Z,16.23
2018-12-15T19:19:20.376Z,14.60
2018-12-15T19:21:47.949Z,16.93
2018-12-15T19:24:15.509Z,16.30
2018-12-15T19:26:43.069Z,18.97
2018-12-15T19:29:10.657Z,16.03
2018-12-15T19:31:38.190Z,17.37
2018-12-15T19:34:05.750Z,16.27
2018-12-15T19:36:33.309Z,16.97
2018-12-15T19:39:00.849Z,15.23
2018-12-15T19:41:28.386Z,16.03
2018-12-15T19:43:55.916Z,15.57
2018-12-15T19:46:23.465Z,15.00
2018-12-15T19:48:51.046Z,18.67
2018-12-15T19:51:18.597Z,16.63
2018-12-15T19:53:47.581Z,31.77
2018-12-15T19:56:15.403Z,17.37
2018-12-15T19:58:42.978Z,18.33
2018-12-15T20:01:10.488Z,18.73
2018-12-15T20:03:38.026Z,18.20
2018-12-15T20:06:05.607Z,16.23
2018-12-15T20:08:33.147Z,17.57
2018-12-15T20:11:00.677Z,20.20
2018-12-15T20:13:28.613Z,18.97
2018-12-15T20:15:58.504Z,20.00
2018-12-15T20:18:26.020Z,18.03
2018-12-15T20:20:53.589Z,19.40
2018-12-15T20:23:21.303Z,22.93
2018-12-15T20:25:48.860Z,25.17
2018-12-15T20:28:16.566Z,19.43
2018-12-15T20:30:44.141Z,19.87
2018-12-15T20:33:11.690Z,15.80
2018-12-15T20:35:39.317Z,18.90
2018-12-15T20:38:06.932Z,20.23
2018-12-15T20:40:34.477Z,18.67
2018-12-15T20:43:02.381Z,17.63
2018-12-15T20:45:29.962Z,18.03
2018-12-15T20:47:57.914Z,17.93
2018-12-15T20:50:26.414Z,24.57
2018-12-15T20:52:54.375Z,18.87
2018-12-15T20:55:22.026Z,21.87
2018-12-15T20:57:49.900Z,20.70
2018-12-15T21:00:18.611Z,22.73
2018-12-15T21:02:46.145Z,17.50
2018-12-15T21:05:13.735Z,19.97
2018-12-15T21:07:41.264Z,19.90
2018-12-15T21:10:08.988Z,20.50
2018-12-15T21:12:36.593Z,18.83
2018-12-15T21:15:07.126Z,17.53
2018-12-15T21:17:36.181Z,17.37
2018-12-15T21:20:06.468Z,17.43
2018-12-15T21:22:35.055Z,18.60
2018-12-15T21:25:02.678Z,19.83
2018-12-15T21:27:30.559Z,18.27
2018-12-15T21:29:58.339Z,18.03
2018-12-15T21:32:26.155Z,20.53
2018-12-15T21:34:53.695Z,18.93
2018-12-15T21:37:21.535Z,15.53
2018-12-15T21:39:49.078Z,19.53
2018-12-15T21:42:16.760Z,18.03
2018-12-15T21:44:44.555Z,18.73
2018-12-15T21:47:12.679Z,18.13
2018-12-15T21:49:40.512Z,15.00
2018-12-15T21:52:08.037Z,16.73
2018-12-15T21:54:35.585Z,19.97
2018-12-15T21:57:03.272Z,18.27
2018-12-15T21:59:31.069Z,20.30
2018-12-15T22:01:58.652Z,18.30
2018-12-15T22:04:26.238Z,17.00
2018-12-15T22:06:53.765Z,18.17
2018-12-15T22:09:21.340Z,20.13
2018-12-15T22:11:48.897Z,18.90
2018-12-15T22:14:17.025Z,16.20
2018-12-15T22:16:44.617Z,17.43
2018-12-15T22:19:12.219Z,17.80
2018-12-15T22:21:40.334Z,19.77
2018-12-15T22:24:07.843Z,22.67
2018-12-15T22:26:35.454Z,19.97
2018-12-15T22:29:03.883Z,19.43
2018-12-15T22:31:31.442Z,21.27
2018-12-15T22:33:59.000Z,21.67
2018-12-15T22:36:26.533Z,20.43
2018-12-15T22:38:54.078Z,22.23
2018-12-15T22:41:22.071Z,19.90
2018-12-15T22:43:49.634Z,23.33
2018-12-15T22:46:17.500Z,20.83
2018-12-15T22:48:45.070Z,23.50
2018-12-15T22:51:12.588Z,22.77
2018-12-15T22:53:40.206Z,21.03
2018-12-15T22:56:07.776Z,24.77
2018-12-15T22:58:35.735Z,23.53
2018-12-15T23:01:11.056Z,20.63
2018-12-15T23:03:39.845Z,21.73
2018-12-15T23:06:07.372Z,22.80
2018-12-15T23:08:34.908Z,21.33
2018-12-15T23:11:02.436Z,22.27
2018-12-15T23:13:29.991Z,22.83
2018-12-15T23:15:57.539Z,21.47
2018-12-15T23:18:25.233Z,22.87
2018-12-15T23:20:53.264Z,22.13
2018-12-15T23:23:20.781Z,22.83
2018-12-15T23:25:48.353Z,22.73
2018-12-15T23:28:15.917Z,23.07
2018-12-15T23:30:43.435Z,20.57
2018-12-15T23:33:11.190Z,24.30
2018-12-15T23:35:38.740Z,21.23
2018-12-15T23:38:06.300Z,20.87
2018-12-15T23:40:33.862Z,26.03
2018-12-15T23:43:01.381Z,20.67
2018-12-15T23:45:29.276Z,23.00
2018-12-15T23:47:56.792Z,19.63
2018-12-15T23:50:24.496Z,22.80
2018-12-15T23:52:52.077Z,21.43
2018-12-15T23:55:20.923Z,24.07
2018-12-15T23:57:48.989Z,22.20
